Time;durP1;ratioP1;P1;durP2;ratioP2;P2;SDS_P1;SDS_P2;PMS_P1;PMS_P2;Temp;Humidity;BMP_temperature;BMP_pressure;BME280_temperature;BME280_humidity;BME280_pressure;Samples;Min_cycle;Max_cycle;Signal;HPM_P1;HPM_P2
2023/06/14 00:00:44;;;;;;;2.80;1.90;;;;;;;;;;5072067;28;20290;-53
2023/06/14 00:03:11;;;;;;;3.23;2.00;;;;;;;;;;5072333;28;20679;-54
2023/06/14 00:05:40;;;;;;;2.13;1.93;;;;;;;;;;5072320;28;20215;-54
2023/06/14 00:08:07;;;;;;;2.53;2.30;;;;;;;;;;5072399;28;20233;-53
2023/06/14 00:10:35;;;;;;;4.37;2.00;;;;;;;;;;5072080;28;20722;-54
2023/06/14 00:13:01;;;;;;;2.93;2.30;;;;;;;;;;5072147;28;20223;-54
2023/06/14 00:15:27;;;;;;;4.90;2.20;;;;;;;;;;5072411;28;20323;-54
2023/06/14 00:17:54;;;;;;;2.63;2.00;;;;;;;;;;5072328;28;20205;-54
2023/06/14 00:20:20;;;;;;;6.50;2.67;;;;;;;;;;5072281;28;20237;-53
2023/06/14 00:22:47;;;;;;;2.10;1.90;;;;;;;;;;5071692;28;20198;-54
2023/06/14 00:25:13;;;;;;;4.23;2.20;;;;;;;;;;5071688;28;20241;-54
2023/06/14 00:27:41;;;;;;;3.03;2.20;;;;;;;;;;5072212;28;20221;-54
2023/06/14 00:30:07;;;;;;;3.90;2.57;;;;;;;;;;5071992;28;20567;-53
2023/06/14 00:32:33;;;;;;;3.57;2.23;;;;;;;;;;5071886;28;20205;-54
2023/06/14 00:34:59;;;;;;;2.47;2.27;;;;;;;;;;5071615;28;20209;-54
2023/06/14 00:37:25;;;;;;;3.53;2.33;;;;;;;;;;5071605;28;20744;-54
2023/06/14 00:39:51;;;;;;;3.77;2.27;;;;;;;;;;5072169;28;20226;-54
2023/06/14 00:42:24;;;;;;;2.80;2.30;;;;;;;;;;5071596;28;20209;-53
2023/06/14 00:44:51;;;;;;;4.83;1.97;;;;;;;;;;5071801;28;20198;-54
2023/06/14 00:47:18;;;;;;;3.97;2.13;;;;;;;;;;5060177;28;20206;-54
2023/06/14 00:49:45;;;;;;;2.40;2.10;;;;;;;;;;5051636;28;20732;-54
2023/06/14 00:52:12;;;;;;;2.53;1.97;;;;;;;;;;5051446;28;20200;-54
2023/06/14 00:54:38;;;;;;;4.30;2.07;;;;;;;;;;5051356;28;20638;-54
2023/06/14 00:57:04;;;;;;;3.50;2.50;;;;;;;;;;5051437;28;20672;-54
2023/06/14 00:59:30;;;;;;;6.20;2.07;;;;;;;;;;5051114;28;20193;-54
2023/06/14 01:01:58;;;;;;;5.03;2.57;;;;;;;;;;5049419;28;20204;-54
2023/06/14 01:04:24;;;;;;;3.43;2.10;;;;;;;;;;5049715;28;20219;-54
2023/06/14 01:06:53;;;;;;;3.80;2.37;;;;;;;;;;5051507;28;20206;-52
2023/06/14 01:09:22;;;;;;;4.37;2.40;;;;;;;;;;5051507;28;20666;-53
2023/06/14 01:11:51;;;;;;;4.27;2.87;;;;;;;;;;5050184;28;20628;-53
2023/06/14 01:14:17;;;;;;;2.93;2.03;;;;;;;;;;5051276;28;20253;-53
2023/06/14 01:16:45;;;;;;;3.33;2.23;;;;;;;;;;5050745;28;20200;-51
2023/06/14 01:19:13;;;;;;;4.60;2.77;;;;;;;;;;5051166;28;20210;-50
2023/06/14 01:21:41;;;;;;;2.57;2.37;;;;;;;;;;5051182;28;20226;-51
2023/06/14 01:24:09;;;;;;;4.63;2.87;;;;;;;;;;5051096;28;20596;-50
2023/06/14 01:26:37;;;;;;;5.10;2.30;;;;;;;;;;5051460;28;20206;-51
2023/06/14 01:29:04;;;;;;;4.87;2.57;;;;;;;;;;5051200;28;20276;-50
2023/06/14 01:31:39;;;;;;;3.50;2.33;;;;;;;;;;5051145;28;20207;-50
2023/06/14 01:34:05;;;;;;;3.30;2.67;;;;;;;;;;5051063;28;20627;-49
2023/06/14 01:36:32;;;;;;;4.87;2.47;;;;;;;;;;5051187;28;20221;-49
2023/06/14 01:38:59;;;;;;;4.07;2.20;;;;;;;;;;5051090;28;20189;-49
2023/06/14 01:41:27;;;;;;;2.53;2.33;;;;;;;;;;5050998;28;20196;-50
2023/06/14 01:43:54;;;;;;;3.27;2.40;;;;;;;;;;5051151;28;20200;-50
2023/06/14 01:46:20;;;;;;;4.27;2.30;;;;;;;;;;5051103;28;20207;-51
2023/06/14 01:48:46;;;;;;;2.23;2.03;;;;;;;;;;5050962;28;20198;-51
2023/06/14 01:51:12;;;;;;;3.73;2.23;;;;;;;;;;5050790;28;20223;-51
2023/06/14 01:53:38;;;;;;;3.27;2.43;;;;;;;;;;5050906;28;20699;-51
2023/06/14 01:56:05;;;;;;;2.93;2.60;;;;;;;;;;5051144;28;20202;-51
2023/06/14 01:58:32;;;;;;;4.70;2.70;;;;;;;;;;5050949;28;20203;-51
2023/06/14 02:01:00;;;;;;;4.70;2.57;;;;;;;;;;5050798;28;20200;-51
2023/06/14 02:03:27;;;;;;;2.43;2.23;;;;;;;;;;5050800;28;20197;-50
2023/06/14 02:05:54;;;;;;;6.50;2.63;;;;;;;;;;5050691;28;20216;-51
2023/06/14 02:08:20;;;;;;;4.87;2.60;;;;;;;;;;5050839;28;20204;-51
2023/06/14 02:10:46;;;;;;;4.40;2.17;;;;;;;;;;5050749;28;20398;-50
2023/06/14 02:13:12;;;;;;;4.20;2.53;;;;;;;;;;5050557;28;20224;-51
2023/06/14 02:15:40;;;;;;;3.20;2.37;;;;;;;;;;5050799;28;20219;-50
2023/06/14 02:18:06;;;;;;;2.83;2.53;;;;;;;;;;5050736;28;20318;-51
2023/06/14 02:20:32;;;;;;;3.17;2.53;;;;;;;;;;5050719;28;20238;-51
2023/06/14 02:22:58;;;;;;;3.63;2.70;;;;;;;;;;5050663;28;20318;-51
2023/06/14 02:25:24;;;;;;;2.87;2.50;;;;;;;;;;5050378;28;20640;-50
2023/06/14 02:27:50;;;;;;;2.87;2.60;;;;;;;;;;5052022;28;20208;-51
2023/06/14 02:30:16;;;;;;;3.53;3.03;;;;;;;;;;5054236;28;20202;-50
2023/06/14 02:32:43;;;;;;;4.43;2.40;;;;;;;;;;5054213;28;20211;-50
2023/06/14 02:35:10;;;;;;;3.43;2.50;;;;;;;;;;5054175;28;20254;-51
2023/06/14 02:37:36;;;;;;;3.47;2.67;;;;;;;;;;5054484;28;20206;-50
2023/06/14 02:40:02;;;;;;;4.03;2.53;;;;;;;;;;5054252;28;20200;-50
2023/06/14 02:42:28;;;;;;;4.80;2.60;;;;;;;;;;5054090;28;20655;-50
2023/06/14 02:44:54;;;;;;;2.63;2.43;;;;;;;;;;5054043;28;20192;-50
2023/06/14 02:47:20;;;;;;;2.40;2.20;;;;;;;;;;5054156;28;20559;-51
2023/06/14 02:49:47;;;;;;;3.27;2.40;;;;;;;;;;5053981;28;20200;-51
2023/06/14 02:52:13;;;;;;;2.57;2.37;;;;;;;;;;5053807;28;20200;-51
2023/06/14 02:54:40;;;;;;;11.00;3.20;;;;;;;;;;5053824;28;20228;-51
2023/06/14 02:57:07;;;;;;;4.23;2.80;;;;;;;;;;5053952;28;20204;-51
2023/06/14 02:59:33;;;;;;;5.30;2.80;;;;;;;;;;5053790;28;20246;-52
2023/06/14 03:01:59;;;;;;;3.37;2.80;;;;;;;;;;5053339;28;20204;-50
2023/06/14 03:04:25;;;;;;;3.87;2.47;;;;;;;;;;5052675;28;20226;-50
2023/06/14 03:06:53;;;;;;;2.83;2.53;;;;;;;;;;5053360;28;20188;-51
2023/06/14 03:09:19;;;;;;;3.00;2.23;;;;;;;;;;5053715;28;20544;-50
2023/06/14 03:11:45;;;;;;;2.50;2.30;;;;;;;;;;5053491;28;20333;-50
2023/06/14 03:14:13;;;;;;;2.73;2.50;;;;;;;;;;5053276;28;20224;-50
2023/06/14 03:16:39;;;;;;;4.17;2.80;;;;;;;;;;5053501;28;20218;-51
2023/06/14 03:19:05;;;;;;;3.63;2.57;;;;;;;;;;5053524;28;20678;-51
2023/06/14 03:21:32;;;;;;;3.80;2.60;;;;;;;;;;5053391;28;20200;-51
2023/06/14 03:23:59;;;;;;;3.53;2.33;;;;;;;;;;5053163;28;20196;-51
2023/06/14 03:26:25;;;;;;;7.60;2.63;;;;;;;;;;5053341;28;20722;-50
2023/06/14 03:28:51;;;;;;;3.83;2.87;;;;;;;;;;5052049;28;20204;-51
2023/06/14 03:31:18;;;;;;;4.33;3.20;;;;;;;;;;5053139;28;20208;-50
2023/06/14 03:33:44;;;;;;;4.27;3.63;;;;;;;;;;5053127;28;20238;-51
2023/06/14 03:36:11;;;;;;;6.57;3.67;;;;;;;;;;5052899;28;20201;-51
2023/06/14 03:38:37;;;;;;;6.90;4.17;;;;;;;;;;5053190;28;20673;-50
2023/06/14 03:41:04;;;;;;;9.07;3.87;;;;;;;;;;5052635;28;20192;-50
2023/06/14 03:43:30;;;;;;;7.10;3.80;;;;;;;;;;5052838;28;20192;-50
2023/06/14 03:45:56;;;;;;;5.13;3.73;;;;;;;;;;5052857;28;20192;-51
2023/06/14 03:48:22;;;;;;;5.63;3.47;;;;;;;;;;5052856;28;20224;-51
2023/06/14 03:50:48;;;;;;;5.20;3.40;;;;;;;;;;5052998;28;20223;-51
2023/06/14 03:53:14;;;;;;;4.57;3.03;;;;;;;;;;5052639;28;20220;-51
2023/06/14 03:55:41;;;;;;;7.50;2.93;;;;;;;;;;5052774;28;20200;-51
2023/06/14 03:58:08;;;;;;;4.37;2.77;;;;;;;;;;5052854;28;20207;-51
2023/06/14 04:00:35;;;;;;;4.03;3.07;;;;;;;;;;5052930;28;20220;-50
2023/06/14 04:03:03;;;;;;;4.37;2.97;;;;;;;;;;5052514;28;20586;-51
2023/06/14 04:05:29;;;;;;;6.63;3.23;;;;;;;;;;5052466;28;20212;-51
2023/06/14 04:07:55;;;;;;;4.40;3.30;;;;;;;;;;5052521;28;20246;-50
2023/06/14 04:10:21;;;;;;;6.23;3.57;;;;;;;;;;5052540;28;20204;-50
2023/06/14 04:12:47;;;;;;;3.37;2.67;;;;;;;;;;5052409;28;20192;-51
2023/06/14 04:15:15;;;;;;;3.30;2.80;;;;;;;;;;5052206;28;20557;-49
2023/06/14 04:17:41;;;;;;;5.70;2.57;;;;;;;;;;5052301;28;20199;-50
2023/06/14 04:20:10;;;;;;;5.10;2.83;;;;;;;;;;5052234;28;20196;-50
2023/06/14 04:22:36;;;;;;;3.10;2.80;;;;;;;;;;5052417;28;20279;-49
2023/06/14 04:25:03;;;;;;;4.73;2.57;;;;;;;;;;5051996;28;20224;-50
2023/06/14 04:27:31;;;;;;;4.30;2.90;;;;;;;;;;5052165;28;20603;-50
2023/06/14 04:29:57;;;;;;;3.37;2.70;;;;;;;;;;5052172;28;20484;-50
2023/06/14 04:32:26;;;;;;;4.33;2.37;;;;;;;;;;5050741;28;20562;-51
2023/06/14 04:34:53;;;;;;;2.97;2.67;;;;;;;;;;5051996;28;20231;-50
2023/06/14 04:37:20;;;;;;;4.47;2.67;;;;;;;;;;5052088;28;20192;-50
2023/06/14 04:39:47;;;;;;;4.93;3.00;;;;;;;;;;5052150;28;20200;-50
2023/06/14 04:42:14;;;;;;;3.03;2.73;;;;;;;;;;5051788;28;20608;-51
2023/06/14 04:44:40;;;;;;;2.50;2.30;;;;;;;;;;5051762;28;20658;-51
2023/06/14 04:47:06;;;;;;;4.07;3.00;;;;;;;;;;5051630;28;20654;-51
2023/06/14 04:49:34;;;;;;;2.93;2.63;;;;;;;;;;5051537;28;20651;-50
2023/06/14 04:52:01;;;;;;;3.30;2.80;;;;;;;;;;5050741;28;20682;-50
2023/06/14 04:54:27;;;;;;;4.37;2.70;;;;;;;;;;5051535;28;20251;-50
2023/06/14 04:56:54;;;;;;;2.83;2.53;;;;;;;;;;5051830;28;20242;-50
2023/06/14 04:59:22;;;;;;;4.50;2.73;;;;;;;;;;5051747;28;20204;-50
2023/06/14 05:01:48;;;;;;;3.00;2.70;;;;;;;;;;5051700;28;20208;-50
2023/06/14 05:04:15;;;;;;;5.53;2.83;;;;;;;;;;5051388;28;20217;-50
2023/06/14 05:06:44;;;;;;;2.90;2.60;;;;;;;;;;5051430;28;20199;-50
2023/06/14 05:09:10;;;;;;;9.60;2.70;;;;;;;;;;5051201;28;20196;-50
2023/06/14 05:11:36;;;;;;;3.10;2.60;;;;;;;;;;5051597;28;20615;-51
2023/06/14 05:14:02;;;;;;;3.00;2.47;;;;;;;;;;5051127;28;20319;-51
2023/06/14 05:16:29;;;;;;;3.00;2.40;;;;;;;;;;5051155;28;20197;-51
2023/06/14 05:18:55;;;;;;;6.67;2.40;;;;;;;;;;5051266;28;20567;-51
2023/06/14 05:21:21;;;;;;;3.60;2.77;;;;;;;;;;5051136;28;20196;-50
2023/06/14 05:23:48;;;;;;;4.30;2.40;;;;;;;;;;5051085;28;20271;-51
2023/06/14 05:26:14;;;;;;;2.77;2.57;;;;;;;;;;5050947;28;20206;-51
2023/06/14 05:28:40;;;;;;;2.43;2.20;;;;;;;;;;5051367;28;20262;-51
2023/06/14 05:31:06;;;;;;;4.23;2.83;;;;;;;;;;5051097;28;20616;-51
2023/06/14 05:33:32;;;;;;;2.83;2.40;;;;;;;;;;5050964;28;20232;-50
2023/06/14 05:35:58;;;;;;;4.70;2.50;;;;;;;;;;5050680;28;20204;-50
2023/06/14 05:38:25;;;;;;;3.80;2.20;;;;;;;;;;5050881;28;20200;-50
2023/06/14 05:40:53;;;;;;;2.40;2.20;;;;;;;;;;5051277;28;20665;-51
2023/06/14 05:43:19;;;;;;;2.70;2.30;;;;;;;;;;5051009;28;20202;-51
2023/06/14 05:45:45;;;;;;;2.33;2.13;;;;;;;;;;5051037;28;20223;-51
2023/06/14 05:48:11;;;;;;;3.60;2.33;;;;;;;;;;5050878;28;20200;-50
2023/06/14 05:50:37;;;;;;;2.80;2.27;;;;;;;;;;5050769;28;20269;-51
2023/06/14 05:53:03;;;;;;;2.93;2.00;;;;;;;;;;5050882;28;20593;-51
2023/06/14 05:55:29;;;;;;;2.43;2.23;;;;;;;;;;5050793;28;20205;-53
2023/06/14 05:57:57;;;;;;;3.23;2.10;;;;;;;;;;5050854;28;20237;-51
2023/06/14 06:00:23;;;;;;;4.57;2.00;;;;;;;;;;5050845;28;20201;-51
2023/06/14 06:02:49;;;;;;;3.67;2.00;;;;;;;;;;5052215;28;20205;-51
2023/06/14 06:05:15;;;;;;;3.40;2.13;;;;;;;;;;5054550;28;20313;-51
2023/06/14 06:07:41;;;;;;;2.53;1.70;;;;;;;;;;5054558;28;20201;-51
2023/06/14 06:10:08;;;;;;;2.10;1.90;;;;;;;;;;5054734;28;20292;-50
2023/06/14 06:12:34;;;;;;;2.93;2.00;;;;;;;;;;5054874;28;20656;-50
2023/06/14 06:15:01;;;;;;;2.67;1.97;;;;;;;;;;5054551;28;20230;-50
2023/06/14 06:17:27;;;;;;;1.90;1.80;;;;;;;;;;5054587;28;20213;-51
2023/06/14 06:19:53;;;;;;;3.67;2.13;;;;;;;;;;5054477;28;20296;-51
2023/06/14 06:22:19;;;;;;;3.90;2.10;;;;;;;;;;5054804;28;20201;-50
2023/06/14 06:24:45;;;;;;;2.37;2.00;;;;;;;;;;5054358;28;20242;-51
2023/06/14 06:27:12;;;;;;;2.20;2.00;;;;;;;;;;5054229;28;20202;-51
2023/06/14 06:29:38;;;;;;;3.20;2.20;;;;;;;;;;5054572;28;20210;-51
2023/06/14 06:32:06;;;;;;;3.00;2.10;;;;;;;;;;5054415;28;20192;-50
2023/06/14 06:34:32;;;;;;;2.13;1.93;;;;;;;;;;5054231;28;20228;-51
2023/06/14 06:36:58;;;;;;;2.40;1.97;;;;;;;;;;5054212;28;20200;-51
2023/06/14 06:39:25;;;;;;;4.40;2.10;;;;;;;;;;5054152;28;20203;-51
2023/06/14 06:41:51;;;;;;;2.30;2.10;;;;;;;;;;5054218;28;20188;-51
2023/06/14 06:44:17;;;;;;;2.50;2.07;;;;;;;;;;5054035;28;20254;-51
2023/06/14 06:46:43;;;;;;;2.40;2.13;;;;;;;;;;5054306;28;20196;-51
2023/06/14 06:49:14;;;;;;;2.47;2.00;;;;;;;;;;5053745;28;20196;-51
2023/06/14 06:51:45;;;;;;;2.40;2.03;;;;;;;;;;5053895;28;20211;-51
2023/06/14 06:54:11;;;;;;;4.10;2.30;;;;;;;;;;5053768;28;20238;-50
2023/06/14 06:56:37;;;;;;;2.23;2.03;;;;;;;;;;5054098;28;20203;-51
2023/06/14 06:59:03;;;;;;;2.43;1.80;;;;;;;;;;5053894;28;20192;-51
2023/06/14 07:01:29;;;;;;;4.47;1.80;;;;;;;;;;5053804;28;20275;-51
2023/06/14 07:03:55;;;;;;;1.70;1.60;;;;;;;;;;5053684;28;20646;-52
2023/06/14 07:06:27;;;;;;;4.67;2.00;;;;;;;;;;5053661;28;20784;-51
2023/06/14 07:08:53;;;;;;;2.30;1.93;;;;;;;;;;5053889;28;20704;-51
2023/06/14 07:11:19;;;;;;;4.10;2.20;;;;;;;;;;5053579;28;20278;-51
2023/06/14 07:13:45;;;;;;;2.60;1.80;;;;;;;;;;5052963;28;20323;-51
2023/06/14 07:16:11;;;;;;;4.93;2.10;;;;;;;;;;5052840;28;20207;-52
2023/06/14 07:18:37;;;;;;;2.57;2.20;;;;;;;;;;5053628;28;20219;-51
2023/06/14 07:21:03;;;;;;;2.07;1.80;;;;;;;;;;5053487;28;20192;-51
2023/06/14 07:23:30;;;;;;;2.70;2.07;;;;;;;;;;5053435;28;20192;-52
2023/06/14 07:25:56;;;;;;;4.07;1.90;;;;;;;;;;5053153;28;20228;-51
2023/06/14 07:28:22;;;;;;;4.60;1.90;;;;;;;;;;5053345;28;20206;-51
2023/06/14 07:30:48;;;;;;;2.23;2.03;;;;;;;;;;5053445;28;20571;-51
2023/06/14 07:33:14;;;;;;;2.87;1.80;;;;;;;;;;5053321;28;20224;-51
2023/06/14 07:35:41;;;;;;;3.67;1.97;;;;;;;;;;5053310;28;20291;-51
2023/06/14 07:38:07;;;;;;;2.73;1.60;;;;;;;;;;5053351;28;20607;-52
2023/06/14 07:40:34;;;;;;;2.10;1.90;;;;;;;;;;5053215;28;20200;-51
2023/06/14 07:43:02;;;;;;;1.63;1.53;;;;;;;;;;5052894;28;20564;-51
2023/06/14 07:45:28;;;;;;;2.07;1.80;;;;;;;;;;5053100;28;20840;-52
2023/06/14 07:47:54;;;;;;;1.90;1.70;;;;;;;;;;5052923;28;20663;-52
2023/06/14 07:50:20;;;;;;;1.73;1.63;;;;;;;;;;5052865;28;20201;-52
2023/06/14 07:52:48;;;;;;;2.70;1.90;;;;;;;;;;5052893;28;20222;-51
2023/06/14 07:55:15;;;;;;;2.47;2.07;;;;;;;;;;5052611;28;20445;-51
2023/06/14 07:57:44;;;;;;;2.07;1.87;;;;;;;;;;5052908;28;20204;-51
2023/06/14 08:00:15;;;;;;;2.47;1.90;;;;;;;;;;5051853;28;20600;-52
2023/06/14 08:02:40;;;;;;;2.30;1.70;;;;;;;;;;5051738;28;20280;-52
2023/06/14 08:05:08;;;;;;;4.67;2.20;;;;;;;;;;5052313;28;20217;-51
2023/06/14 08:07:34;;;;;;;6.50;1.70;;;;;;;;;;5052808;28;20271;-52
2023/06/14 08:10:00;;;;;;;1.87;1.67;;;;;;;;;;5052639;28;20300;-52
2023/06/14 08:12:26;;;;;;;3.10;2.00;;;;;;;;;;5052273;28;20197;-51
2023/06/14 08:14:53;;;;;;;2.10;1.90;;;;;;;;;;5052403;28;20327;-53
2023/06/14 08:17:19;;;;;;;4.60;2.07;;;;;;;;;;5052436;28;20205;-53
2023/06/14 08:19:46;;;;;;;2.47;2.00;;;;;;;;;;5052191;28;20279;-53
2023/06/14 08:22:12;;;;;;;1.87;1.73;;;;;;;;;;5052132;28;20209;-51
2023/06/14 08:24:39;;;;;;;2.50;1.93;;;;;;;;;;5051822;28;20249;-50
2023/06/14 08:27:05;;;;;;;3.13;1.80;;;;;;;;;;5052184;28;20198;-52
2023/06/14 08:29:31;;;;;;;3.20;2.07;;;;;;;;;;5051958;28;20743;-51
2023/06/14 08:31:59;;;;;;;2.00;1.90;;;;;;;;;;5051906;28;20296;-51
2023/06/14 08:34:26;;;;;;;2.77;1.80;;;;;;;;;;5051714;28;20234;-52
2023/06/14 08:36:52;;;;;;;3.50;1.77;;;;;;;;;;5052252;28;20625;-51
2023/06/14 08:39:18;;;;;;;2.10;1.90;;;;;;;;;;5052017;28;20728;-51
2023/06/14 08:41:46;;;;;;;2.10;1.87;;;;;;;;;;5052000;28;20193;-51
2023/06/14 08:44:12;;;;;;;2.10;1.90;;;;;;;;;;5051701;28;20222;-51
2023/06/14 08:46:39;;;;;;;2.30;1.90;;;;;;;;;;5048795;28;20199;-51
2023/06/14 08:49:07;;;;;;;1.90;1.80;;;;;;;;;;5069314;28;20589;-51
2023/06/14 08:51:36;;;;;;;1.90;1.53;;;;;;;;;;5071797;28;20298;-50
2023/06/14 08:54:04;;;;;;;4.07;1.87;;;;;;;;;;5070018;28;20257;-51
2023/06/14 08:56:30;;;;;;;2.27;1.87;;;;;;;;;;5051671;28;20580;-51
2023/06/14 08:58:56;;;;;;;2.23;2.03;;;;;;;;;;5051184;28;20204;-50
2023/06/14 09:01:23;;;;;;;3.13;1.80;;;;;;;;;;5049478;28;20295;-50
2023/06/14 09:03:49;;;;;;;2.20;2.00;;;;;;;;;;5049998;28;20196;-50
2023/06/14 09:06:18;;;;;;;1.93;1.70;;;;;;;;;;5051386;28;20199;-51
2023/06/14 09:08:44;;;;;;;1.93;1.83;;;;;;;;;;5051487;28;20196;-51
2023/06/14 09:11:12;;;;;;;2.20;1.73;;;;;;;;;;5051218;28;20613;-51
2023/06/14 09:13:38;;;;;;;2.33;1.90;;;;;;;;;;5051204;28;20228;-51
2023/06/14 09:16:05;;;;;;;1.60;1.50;;;;;;;;;;5051064;28;20211;-51
2023/06/14 09:18:35;;;;;;;1.77;1.50;;;;;;;;;;5051303;28;20254;-50
2023/06/14 09:21:01;;;;;;;2.00;1.80;;;;;;;;;;5051226;28;20235;-51
2023/06/14 09:23:28;;;;;;;1.70;1.60;;;;;;;;;;5050948;28;20201;-51
2023/06/14 09:25:55;;;;;;;2.60;1.73;;;;;;;;;;5050918;28;20233;-51
2023/06/14 09:28:22;;;;;;;2.23;1.57;;;;;;;;;;5051120;28;20205;-51
2023/06/14 09:30:48;;;;;;;1.90;1.70;;;;;;;;;;5051171;28;20208;-51
2023/06/14 09:33:17;;;;;;;3.10;1.67;;;;;;;;;;5050812;28;20568;-51
2023/06/14 09:35:45;;;;;;;1.70;1.60;;;;;;;;;;5050916;28;20201;-52
2023/06/14 09:38:11;;;;;;;2.73;1.73;;;;;;;;;;5050321;28;20568;-50
2023/06/14 09:40:39;;;;;;;2.37;2.10;;;;;;;;;;5051106;28;20198;-51
2023/06/14 09:43:09;;;;;;;2.00;1.80;;;;;;;;;;5051080;28;20657;-50
2023/06/14 09:45:35;;;;;;;2.47;2.00;;;;;;;;;;5051063;28;20255;-52
2023/06/14 09:48:01;;;;;;;3.10;1.80;;;;;;;;;;5050888;28;20614;-52
2023/06/14 09:50:27;;;;;;;3.37;1.90;;;;;;;;;;5050749;28;20827;-52
2023/06/14 09:52:57;;;;;;;3.80;2.00;;;;;;;;;;5051066;28;20191;-52
2023/06/14 09:55:24;;;;;;;5.93;1.90;;;;;;;;;;5050775;28;20728;-52
2023/06/14 09:57:52;;;;;;;4.90;2.00;;;;;;;;;;5051058;28;20199;-52
2023/06/14 10:00:18;;;;;;;4.67;1.93;;;;;;;;;;5050876;28;20196;-52
2023/06/14 10:02:48;;;;;;;3.20;1.83;;;;;;;;;;5050798;28;20594;-51
2023/06/14 10:05:16;;;;;;;2.67;1.80;;;;;;;;;;5050494;28;20216;-51
2023/06/14 10:07:44;;;;;;;1.93;1.83;;;;;;;;;;5050765;28;20203;-51
2023/06/14 10:10:11;;;;;;;4.10;2.03;;;;;;;;;;5050685;28;20200;-52
2023/06/14 10:12:37;;;;;;;3.37;1.80;;;;;;;;;;5050909;28;20610;-52
2023/06/14 10:15:05;;;;;;;3.17;1.80;;;;;;;;;;5050731;28;20637;-51
2023/06/14 10:17:35;;;;;;;4.00;2.23;;;;;;;;;;5050800;28;20214;-51
2023/06/14 10:20:07;;;;;;;4.40;1.93;;;;;;;;;;5050565;28;20284;-52
2023/06/14 10:22:37;;;;;;;3.93;1.93;;;;;;;;;;5050705;28;20714;-52
2023/06/14 10:25:11;;;;;;;2.43;2.00;;;;;;;;;;5050566;28;20224;-50
2023/06/14 10:27:37;;;;;;;3.17;2.00;;;;;;;;;;5050733;28;20735;-51
2023/06/14 10:30:07;;;;;;;3.27;2.30;;;;;;;;;;5050749;28;20226;-51
2023/06/14 10:32:33;;;;;;;4.67;2.33;;;;;;;;;;5050501;28;20204;-51
2023/06/14 10:35:00;;;;;;;2.70;2.03;;;;;;;;;;5050368;28;20272;-52
2023/06/14 10:37:26;;;;;;;2.23;2.03;;;;;;;;;;5050170;28;20196;-52
2023/06/14 10:39:53;;;;;;;2.60;2.40;;;;;;;;;;5050676;28;20277;-51
2023/06/14 10:42:19;;;;;;;5.73;2.13;;;;;;;;;;5050589;28;20199;-52
2023/06/14 10:44:46;;;;;;;3.00;2.00;;;;;;;;;;5050491;28;20257;-53
2023/06/14 10:47:24;;;;;;;3.13;2.00;;;;;;;;;;5050578;28;20206;-52
2023/06/14 10:49:51;;;;;;;4.50;1.80;;;;;;;;;;5051675;28;20207;-52
2023/06/14 10:52:18;;;;;;;3.40;2.00;;;;;;;;;;5053916;28;20197;-53
2023/06/14 10:54:59;;;;;;;2.70;2.13;;;;;;;;;;5053865;28;20611;-52
2023/06/14 10:57:25;;;;;;;2.23;2.03;;;;;;;;;;5054011;28;20285;-52
2023/06/14 10:59:52;;;;;;;5.13;2.37;;;;;;;;;;5054001;28;20293;-52
2023/06/14 11:02:28;;;;;;;2.20;2.00;;;;;;;;;;5054025;28;20208;-53
2023/06/14 11:04:56;;;;;;;2.50;2.30;;;;;;;;;;5053675;28;20225;-52
2023/06/14 11:07:36;;;;;;;4.53;2.30;;;;;;;;;;5053626;28;20211;-52
2023/06/14 11:10:16;;;;;;;3.00;2.10;;;;;;;;;;5053685;28;20665;-52
2023/06/14 11:12:45;;;;;;;4.93;1.97;;;;;;;;;;5053712;28;20638;-51
2023/06/14 11:15:11;;;;;;;2.97;2.17;;;;;;;;;;5053281;28;20235;-52
2023/06/14 11:17:37;;;;;;;3.93;2.53;;;;;;;;;;5053586;28;20203;-52
2023/06/14 11:20:15;;;;;;;4.57;2.20;;;;;;;;;;5053420;28;20781;-52
2023/06/14 11:22:42;;;;;;;2.23;1.90;;;;;;;;;;5053359;28;20292;-52
2023/06/14 11:25:09;;;;;;;2.27;2.07;;;;;;;;;;5052885;28;20229;-52
2023/06/14 11:27:35;;;;;;;2.80;1.97;;;;;;;;;;5053375;28;20339;-52
2023/06/14 11:30:01;;;;;;;3.03;2.40;;;;;;;;;;5053222;28;20223;-52
2023/06/14 11:32:27;;;;;;;2.40;2.20;;;;;;;;;;5053224;28;20508;-52
2023/06/14 11:34:53;;;;;;;9.17;2.37;;;;;;;;;;5053113;28;20231;-52
2023/06/14 11:37:20;;;;;;;2.40;2.20;;;;;;;;;;5053223;28;20545;-52
2023/06/14 11:39:46;;;;;;;4.43;2.37;;;;;;;;;;5053105;28;20203;-52
2023/06/14 11:42:14;;;;;;;4.23;2.50;;;;;;;;;;5052821;28;20248;-52
2023/06/14 11:44:40;;;;;;;2.40;2.20;;;;;;;;;;5053058;28;20254;-52
2023/06/14 11:47:06;;;;;;;3.03;2.50;;;;;;;;;;5053084;28;20296;-52
2023/06/14 11:49:35;;;;;;;3.90;2.53;;;;;;;;;;5052965;28;20204;-52
2023/06/14 11:52:01;;;;;;;2.57;2.37;;;;;;;;;;5052665;28;20619;-52
2023/06/14 11:54:28;;;;;;;3.80;2.40;;;;;;;;;;5052662;28;20265;-52
2023/06/14 11:56:55;;;;;;;2.27;2.07;;;;;;;;;;5053169;28;20233;-52
2023/06/14 11:59:21;;;;;;;2.67;2.00;;;;;;;;;;5052729;28;20205;-52
2023/06/14 12:01:48;;;;;;;2.90;2.30;;;;;;;;;;5052251;28;20293;-52
2023/06/14 12:04:14;;;;;;;7.17;2.50;;;;;;;;;;5052544;28;20219;-53
2023/06/14 12:06:40;;;;;;;2.93;2.50;;;;;;;;;;5052601;28;20203;-52
2023/06/14 12:09:12;;;;;;;3.23;2.30;;;;;;;;;;5052661;28;20200;-52
2023/06/14 12:11:39;;;;;;;2.47;2.27;;;;;;;;;;5052502;28;20626;-52
2023/06/14 12:14:05;;;;;;;4.33;2.50;;;;;;;;;;5052632;28;20650;-52
2023/06/14 12:16:32;;;;;;;3.93;2.53;;;;;;;;;;5052197;28;20207;-52
2023/06/14 12:19:00;;;;;;;4.30;2.80;;;;;;;;;;5052051;28;20281;-52
2023/06/14 12:21:28;;;;;;;3.43;2.17;;;;;;;;;;5052074;28;20583;-52
2023/06/14 12:23:55;;;;;;;4.77;2.20;;;;;;;;;;5052028;28;20200;-52
2023/06/14 12:26:21;;;;;;;3.83;2.43;;;;;;;;;;5052264;28;20196;-53
2023/06/14 12:28:48;;;;;;;4.70;2.50;;;;;;;;;;5052188;28;20203;-52
2023/06/14 12:31:15;;;;;;;3.07;2.30;;;;;;;;;;5051963;28;20666;-52
2023/06/14 12:33:42;;;;;;;3.77;2.47;;;;;;;;;;5051851;28;20314;-52
2023/06/14 12:36:08;;;;;;;5.13;2.50;;;;;;;;;;5052147;28;20196;-52
2023/06/14 12:38:35;;;;;;;2.90;2.30;;;;;;;;;;5052174;28;20187;-52
2023/06/14 12:41:01;;;;;;;2.80;2.43;;;;;;;;;;5051988;28;20208;-52
2023/06/14 12:43:27;;;;;;;3.27;2.37;;;;;;;;;;5051580;28;20231;-52
2023/06/14 12:45:55;;;;;;;4.97;2.20;;;;;;;;;;5051921;28;20216;-53
2023/06/14 12:48:21;;;;;;;3.13;2.70;;;;;;;;;;5051595;28;20206;-52
2023/06/14 12:50:47;;;;;;;4.70;2.60;;;;;;;;;;5051979;28;20195;-52
2023/06/14 12:53:13;;;;;;;4.60;2.63;;;;;;;;;;5051646;28;20198;-52
2023/06/14 12:55:39;;;;;;;2.80;2.37;;;;;;;;;;5051734;28;20708;-52
2023/06/14 12:58:04;;;;;;;5.10;2.67;;;;;;;;;;5051770;28;20198;-52
2023/06/14 13:00:31;;;;;;;7.07;2.33;;;;;;;;;;5051403;28;20685;-52
2023/06/14 13:02:58;;;;;;;2.60;2.40;;;;;;;;;;5051086;28;20209;-52
2023/06/14 13:05:24;;;;;;;3.03;2.40;;;;;;;;;;5051377;28;20219;-52
2023/06/14 13:07:50;;;;;;;6.63;2.70;;;;;;;;;;5051662;28;20302;-51
2023/06/14 13:10:16;;;;;;;7.83;2.93;;;;;;;;;;5051315;28;20673;-52
2023/06/14 13:12:43;;;;;;;3.97;2.40;;;;;;;;;;5050640;28;20455;-52
2023/06/14 13:15:09;;;;;;;5.27;2.40;;;;;;;;;;5051303;28;20232;-52
2023/06/14 13:17:38;;;;;;;3.97;2.40;;;;;;;;;;5051264;28;20660;-52
2023/06/14 13:20:06;;;;;;;4.57;2.70;;;;;;;;;;5051323;28;20186;-52
2023/06/14 13:22:32;;;;;;;4.00;2.60;;;;;;;;;;5051236;28;20282;-52
2023/06/14 13:24:58;;;;;;;4.90;2.50;;;;;;;;;;5051143;28;20740;-52
2023/06/14 13:27:24;;;;;;;5.13;2.53;;;;;;;;;;5051141;28;20211;-52
2023/06/14 13:29:50;;;;;;;3.40;2.33;;;;;;;;;;5051373;28;20578;-52
2023/06/14 13:32:16;;;;;;;2.87;2.67;;;;;;;;;;5051307;28;20206;-53
2023/06/14 13:34:42;;;;;;;4.93;2.90;;;;;;;;;;5051014;28;20237;-52
2023/06/14 13:37:10;;;;;;;7.93;2.80;;;;;;;;;;5051111;28;20267;-52
2023/06/14 13:39:37;;;;;;;3.47;2.40;;;;;;;;;;5050981;28;20197;-52
2023/06/14 13:42:03;;;;;;;6.47;2.60;;;;;;;;;;5051242;28;20228;-54
2023/06/14 13:44:29;;;;;;;3.40;2.50;;;;;;;;;;5050833;28;20322;-55
2023/06/14 13:46:55;;;;;;;3.30;2.50;;;;;;;;;;5051014;28;20275;-55
2023/06/14 13:49:21;;;;;;;5.27;2.60;;;;;;;;;;5050981;28;20538;-55
2023/06/14 13:51:47;;;;;;;4.10;2.70;;;;;;;;;;5051083;28;20344;-54
2023/06/14 13:54:15;;;;;;;4.33;2.50;;;;;;;;;;5050859;28;20220;-55
2023/06/14 13:56:41;;;;;;;3.40;2.70;;;;;;;;;;5050802;28;20682;-55
2023/06/14 13:59:07;;;;;;;5.40;2.60;;;;;;;;;;5051052;28;20277;-54
2023/06/14 14:01:33;;;;;;;3.97;2.47;;;;;;;;;;5050871;28;20229;-55
2023/06/14 14:04:00;;;;;;;4.73;2.60;;;;;;;;;;5050440;28;20251;-54
2023/06/14 14:06:26;;;;;;;4.00;2.40;;;;;;;;;;5050713;28;20201;-55
2023/06/14 14:08:52;;;;;;;3.73;2.60;;;;;;;;;;5050949;28;20198;-54
2023/06/14 14:11:20;;;;;;;5.83;2.77;;;;;;;;;;5050870;28;20682;-55
2023/06/14 14:13:46;;;;;;;3.40;2.33;;;;;;;;;;5050865;28;20206;-54
2023/06/14 14:16:12;;;;;;;3.37;2.37;;;;;;;;;;5050620;28;20206;-54
2023/06/14 14:18:39;;;;;;;3.10;2.50;;;;;;;;;;5050776;28;20203;-54
2023/06/14 14:21:05;;;;;;;3.97;2.53;;;;;;;;;;5050814;28;20657;-55
2023/06/14 14:23:31;;;;;;;4.00;2.33;;;;;;;;;;5051263;28;20289;-54
2023/06/14 14:25:57;;;;;;;5.50;2.70;;;;;;;;;;5054033;28;20700;-55
2023/06/14 14:28:25;;;;;;;3.00;2.07;;;;;;;;;;5054457;28;20202;-54
2023/06/14 14:30:51;;;;;;;2.90;2.30;;;;;;;;;;5054487;28;20185;-54
2023/06/14 14:33:17;;;;;;;3.77;2.70;;;;;;;;;;5054310;28;20718;-54
2023/06/14 14:35:45;;;;;;;5.47;2.90;;;;;;;;;;5054304;28;20233;-54
2023/06/14 14:38:11;;;;;;;2.60;2.40;;;;;;;;;;5054281;28;20267;-54
2023/06/14 14:40:37;;;;;;;3.83;2.50;;;;;;;;;;5054267;28;20197;-54